DLH9YY EGPH-ENBR
Flight info
| Callsign | DLH9YY |
|---|---|
| Flight time | 0h 58m |
| Altitude | 25000 |
| Route | GRICE P600 ASNUD/N0434F390 DCT BEREP DCT MODNI |
| Aircraft | A20N/M-SDE2E3FGHIRWXY/LB1 |
Departure
| Time | 2026-04-26 12:03 |
|---|---|
| Airport | Edinburgh Airport (EGPH) |
Arrival
| Time | 2026-04-26 13:02 |
|---|---|
| Airport | Bergen Airport, Flesland (ENBR) |
| Time | Latitude | Longitude | Altitude | Speed | Heading |
|---|---|---|---|---|---|
| 2026-04-26 11:24 | 55.94703 | -3.36600 | 106 ft | 0 kts | 88° |
| 2026-04-26 11:48 | 55.94703 | -3.36606 | 106 ft | 2 kts | 88° |
| 2026-04-26 11:49 | 55.94703 | -3.36635 | 106 ft | 2 kts | 87° |
| 2026-04-26 11:49 | 55.94702 | -3.36664 | 106 ft | 2 kts | 85° |
| 2026-04-26 11:49 | 55.94700 | -3.36693 | 106 ft | 2 kts | 81° |
| 2026-04-26 11:49 | 55.94696 | -3.36721 | 104 ft | 2 kts | 58° |
| 2026-04-26 11:50 | 55.94685 | -3.36736 | 105 ft | 1 kts | 359° |
| 2026-04-26 11:50 | 55.94681 | -3.36736 | 105 ft | 0 kts | 357° |
| 2026-04-26 11:54 | 55.94684 | -3.36736 | 106 ft | 2 kts | 357° |
| 2026-04-26 11:54 | 55.94713 | -3.36739 | 106 ft | 7 kts | 358° |
| 2026-04-26 11:55 | 55.94771 | -3.36765 | 105 ft | 11 kts | 340° |
| 2026-04-26 11:55 | 55.94829 | -3.36777 | 104 ft | 0 kts | 358° |
| 2026-04-26 11:57 | 55.94831 | -3.36778 | 104 ft | 1 kts | 358° |
| 2026-04-26 11:58 | 55.94848 | -3.36779 | 104 ft | 4 kts | 357° |
| 2026-04-26 11:58 | 55.94883 | -3.36795 | 105 ft | 6 kts | 337° |
| 2026-04-26 11:58 | 55.94932 | -3.36818 | 105 ft | 8 kts | 10° |
| 2026-04-26 11:58 | 55.94976 | -3.36746 | 107 ft | 10 kts | 56° |
| 2026-04-26 11:59 | 55.95018 | -3.36625 | 105 ft | 13 kts | 59° |
| 2026-04-26 11:59 | 55.95068 | -3.36476 | 107 ft | 15 kts | 59° |
| 2026-04-26 11:59 | 55.95131 | -3.36291 | 104 ft | 20 kts | 59° |
| 2026-04-26 11:59 | 55.95206 | -3.36071 | 100 ft | 19 kts | 59° |
| 2026-04-26 12:00 | 55.95277 | -3.35857 | 101 ft | 20 kts | 59° |
| 2026-04-26 12:00 | 55.95345 | -3.35656 | 103 ft | 17 kts | 58° |
| 2026-04-26 12:00 | 55.95408 | -3.35472 | 104 ft | 17 kts | 58° |
| 2026-04-26 12:00 | 55.95441 | -3.35411 | 104 ft | 8 kts | 30° |
| 2026-04-26 12:01 | 55.95496 | -3.35436 | 100 ft | 0 kts | 331° |
| 2026-04-26 12:01 | 55.95498 | -3.35438 | 101 ft | 2 kts | 331° |
| 2026-04-26 12:01 | 55.95525 | -3.35469 | 101 ft | 8 kts | 327° |
| 2026-04-26 12:02 | 55.95565 | -3.35566 | 101 ft | 13 kts | 259° |
| 2026-04-26 12:02 | 55.95549 | -3.35629 | 101 ft | 0 kts | 236° |
| 2026-04-26 12:02 | 55.95549 | -3.35630 | 101 ft | 1 kts | 236° |
| 2026-04-26 12:02 | 55.95504 | -3.35761 | 102 ft | 35 kts | 239° |
| 2026-04-26 12:03 | 55.95249 | -3.36510 | 103 ft | 103 kts | 239° |
| 2026-04-26 12:03 | 55.94783 | -3.37867 | 117 ft | 152 kts | 237° |
| 2026-04-26 12:03 | 55.94235 | -3.39453 | 664 ft | 148 kts | 237° |
| 2026-04-26 12:03 | 55.93685 | -3.41092 | 1346 ft | 155 kts | 239° |
| 2026-04-26 12:04 | 55.93121 | -3.42816 | 1995 ft | 167 kts | 239° |
| 2026-04-26 12:04 | 55.92513 | -3.44639 | 2676 ft | 174 kts | 238° |
| 2026-04-26 12:04 | 55.91879 | -3.46483 | 3393 ft | 172 kts | 237° |
| 2026-04-26 12:04 | 55.91231 | -3.48312 | 4092 ft | 177 kts | 237° |
| 2026-04-26 12:05 | 55.90560 | -3.50174 | 4820 ft | 180 kts | 238° |
| 2026-04-26 12:05 | 55.90292 | -3.52315 | 5467 ft | 186 kts | 282° |
| 2026-04-26 12:05 | 55.91067 | -3.54138 | 6092 ft | 198 kts | 327° |
| 2026-04-26 12:05 | 55.92463 | -3.54533 | 6559 ft | 217 kts | 8° |
| 2026-04-26 12:06 | 55.93912 | -3.53498 | 6953 ft | 232 kts | 26° |
| 2026-04-26 12:06 | 55.95326 | -3.51961 | 7329 ft | 244 kts | 32° |
| 2026-04-26 12:06 | 55.96871 | -3.50588 | 7607 ft | 255 kts | 9° |
| 2026-04-26 12:06 | 55.98601 | -3.50481 | 8249 ft | 241 kts | 347° |
| 2026-04-26 12:07 | 56.00283 | -3.51006 | 8646 ft | 254 kts | 346° |
| 2026-04-26 12:07 | 56.02069 | -3.51611 | 8801 ft | 260 kts | 345° |
| 2026-04-26 12:07 | 56.03916 | -3.52242 | 8882 ft | 280 kts | 345° |
| 2026-04-26 12:07 | 56.05789 | -3.53307 | 9130 ft | 285 kts | 322° |
| 2026-04-26 12:08 | 56.07124 | -3.55784 | 10009 ft | 279 kts | 301° |
| 2026-04-26 12:08 | 56.08186 | -3.58704 | 10860 ft | 286 kts | 297° |
| 2026-04-26 12:08 | 56.09381 | -3.61757 | 11226 ft | 314 kts | 308° |
| 2026-04-26 12:08 | 56.11172 | -3.64259 | 11656 ft | 341 kts | 330° |
| 2026-04-26 12:09 | 56.13427 | -3.65751 | 12483 ft | 349 kts | 338° |
| 2026-04-26 12:09 | 56.15771 | -3.66980 | 13380 ft | 353 kts | 342° |
| 2026-04-26 12:09 | 56.18215 | -3.67713 | 14225 ft | 362 kts | 357° |
| 2026-04-26 12:09 | 56.20722 | -3.66963 | 14960 ft | 372 kts | 18° |
| 2026-04-26 12:10 | 56.23021 | -3.64753 | 15708 ft | 379 kts | 32° |
| 2026-04-26 12:10 | 56.25171 | -3.61953 | 16449 ft | 384 kts | 36° |
| 2026-04-26 12:10 | 56.27313 | -3.59016 | 17153 ft | 390 kts | 36° |
| 2026-04-26 12:10 | 56.29522 | -3.56018 | 17873 ft | 395 kts | 35° |
| 2026-04-26 12:11 | 56.31715 | -3.53109 | 18584 ft | 399 kts | 34° |
| 2026-04-26 12:11 | 56.33974 | -3.50159 | 19218 ft | 403 kts | 34° |
| 2026-04-26 12:11 | 56.36261 | -3.47197 | 19870 ft | 406 kts | 33° |
| 2026-04-26 12:11 | 56.38573 | -3.44208 | 20477 ft | 410 kts | 33° |
| 2026-04-26 12:12 | 56.40894 | -3.41200 | 21182 ft | 412 kts | 33° |
| 2026-04-26 12:12 | 56.43231 | -3.38170 | 21792 ft | 416 kts | 33° |
| 2026-04-26 12:12 | 56.45592 | -3.35122 | 22419 ft | 419 kts | 32° |
| 2026-04-26 12:12 | 56.47218 | -3.33092 | 22853 ft | 421 kts | 31° |
| 2026-04-26 12:13 | 56.50445 | -3.29135 | 23661 ft | 426 kts | 31° |
| 2026-04-26 12:13 | 56.52910 | -3.26112 | 24202 ft | 429 kts | 31° |
| 2026-04-26 12:13 | 56.55394 | -3.23049 | 24680 ft | 434 kts | 31° |
| 2026-04-26 12:13 | 56.57912 | -3.19977 | 25128 ft | 438 kts | 31° |
| 2026-04-26 12:14 | 56.60450 | -3.16853 | 25517 ft | 444 kts | 31° |
| 2026-04-26 12:14 | 56.62995 | -3.13640 | 25976 ft | 447 kts | 31° |
| 2026-04-26 12:14 | 56.65556 | -3.10407 | 26492 ft | 449 kts | 31° |
| 2026-04-26 12:14 | 56.68130 | -3.07149 | 26922 ft | 454 kts | 33° |
| 2026-04-26 12:15 | 56.70564 | -3.03423 | 27338 ft | 461 kts | 41° |
| 2026-04-26 12:15 | 56.72814 | -2.99237 | 27737 ft | 465 kts | 43° |
| 2026-04-26 12:15 | 56.75089 | -2.94996 | 28134 ft | 469 kts | 43° |
| 2026-04-26 12:15 | 56.77379 | -2.90746 | 28518 ft | 472 kts | 42° |
| 2026-04-26 12:16 | 56.79678 | -2.86477 | 29026 ft | 472 kts | 42° |
| 2026-04-26 12:16 | 56.81988 | -2.82181 | 29369 ft | 477 kts | 42° |
| 2026-04-26 12:16 | 56.84323 | -2.77831 | 29728 ft | 482 kts | 42° |
| 2026-04-26 12:16 | 56.86673 | -2.73440 | 30122 ft | 484 kts | 42° |
| 2026-04-26 12:17 | 56.89027 | -2.69025 | 30484 ft | 487 kts | 42° |
| 2026-04-26 12:17 | 56.91400 | -2.64564 | 30801 ft | 489 kts | 42° |
| 2026-04-26 12:17 | 56.93778 | -2.60085 | 31132 ft | 492 kts | 43° |
| 2026-04-26 12:17 | 56.96161 | -2.55587 | 31494 ft | 493 kts | 43° |
| 2026-04-26 12:18 | 56.98548 | -2.51071 | 31932 ft | 492 kts | 43° |
| 2026-04-26 12:18 | 57.00926 | -2.46565 | 32384 ft | 491 kts | 43° |
| 2026-04-26 12:18 | 57.03297 | -2.42063 | 32823 ft | 490 kts | 43° |
| 2026-04-26 12:18 | 57.05663 | -2.37565 | 33257 ft | 489 kts | 43° |
| 2026-04-26 12:19 | 57.08019 | -2.33075 | 33700 ft | 487 kts | 43° |
| 2026-04-26 12:19 | 57.10367 | -2.28593 | 34169 ft | 485 kts | 44° |
| 2026-04-26 12:19 | 57.12702 | -2.24129 | 34533 ft | 484 kts | 44° |
| 2026-04-26 12:19 | 57.15004 | -2.19718 | 34868 ft | 483 kts | 44° |
| 2026-04-26 12:20 | 57.17327 | -2.15258 | 35179 ft | 482 kts | 44° |
| 2026-04-26 12:20 | 57.19645 | -2.10798 | 35485 ft | 482 kts | 44° |
| 2026-04-26 12:20 | 57.21960 | -2.06334 | 35790 ft | 481 kts | 44° |
| 2026-04-26 12:20 | 57.24268 | -2.01876 | 36081 ft | 480 kts | 44° |
| 2026-04-26 12:21 | 57.26571 | -1.97417 | 36372 ft | 479 kts | 44° |
| 2026-04-26 12:21 | 57.28871 | -1.92958 | 36655 ft | 479 kts | 44° |
| 2026-04-26 12:21 | 57.31160 | -1.88510 | 36931 ft | 478 kts | 44° |
| 2026-04-26 12:21 | 57.33453 | -1.84046 | 37216 ft | 477 kts | 44° |
| 2026-04-26 12:22 | 57.35728 | -1.79608 | 37476 ft | 477 kts | 44° |
| 2026-04-26 12:22 | 57.38014 | -1.75139 | 37783 ft | 475 kts | 44° |
| 2026-04-26 12:22 | 57.40283 | -1.70696 | 38043 ft | 474 kts | 44° |
| 2026-04-26 12:22 | 57.42546 | -1.66255 | 38275 ft | 474 kts | 44° |
| 2026-04-26 12:23 | 57.44805 | -1.61815 | 38496 ft | 473 kts | 44° |
| 2026-04-26 12:23 | 57.46301 | -1.58870 | 38645 ft | 473 kts | 44° |
| 2026-04-26 12:23 | 57.48554 | -1.54426 | 38857 ft | 472 kts | 44° |
| 2026-04-26 12:23 | 57.50804 | -1.49980 | 39037 ft | 472 kts | 44° |
| 2026-04-26 12:24 | 57.53053 | -1.45526 | 39198 ft | 472 kts | 44° |
| 2026-04-26 12:24 | 57.55295 | -1.41081 | 39299 ft | 472 kts | 44° |
| 2026-04-26 12:24 | 57.57541 | -1.36616 | 39303 ft | 471 kts | 44° |
| 2026-04-26 12:25 | 57.64247 | -1.23236 | 39302 ft | 471 kts | 45° |
| 2026-04-26 12:25 | 57.68707 | -1.14291 | 39309 ft | 470 kts | 44° |
| 2026-04-26 12:26 | 57.73157 | -1.05336 | 39307 ft | 470 kts | 44° |
| 2026-04-26 12:26 | 57.77600 | -0.96360 | 39318 ft | 471 kts | 44° |
| 2026-04-26 12:27 | 57.82052 | -0.87330 | 39323 ft | 471 kts | 45° |
| 2026-04-26 12:27 | 57.86501 | -0.78270 | 39326 ft | 472 kts | 45° |
| 2026-04-26 12:28 | 57.90937 | -0.69201 | 39321 ft | 470 kts | 45° |
| 2026-04-26 12:28 | 57.96564 | -0.57645 | 39321 ft | 471 kts | 45° |
| 2026-04-26 12:29 | 58.10697 | -0.28364 | 39325 ft | 471 kts | 45° |
| 2026-04-26 12:30 | 58.28751 | 0.09588 | 39339 ft | 471 kts | 45° |
| 2026-04-26 12:30 | 58.39291 | 0.32033 | 39349 ft | 470 kts | 45° |
| 2026-04-26 12:31 | 58.65228 | 0.88213 | 39345 ft | 469 kts | 45° |
| 2026-04-26 12:31 | 58.82338 | 1.26034 | 39344 ft | 468 kts | 46° |
| 2026-04-26 12:32 | 58.91878 | 1.47393 | 39359 ft | 468 kts | 46° |
| 2026-04-26 12:33 | 58.98245 | 1.61744 | 39359 ft | 468 kts | 46° |
| 2026-04-26 12:33 | 59.02484 | 1.71333 | 39376 ft | 468 kts | 46° |
| 2026-04-26 12:34 | 59.06778 | 1.80848 | 39361 ft | 468 kts | 44° |
| 2026-04-26 12:34 | 59.11175 | 1.90198 | 39358 ft | 468 kts | 44° |
| 2026-04-26 12:34 | 59.13366 | 1.94878 | 39230 ft | 469 kts | 44° |
| 2026-04-26 12:35 | 59.15418 | 1.99285 | 39012 ft | 473 kts | 44° |
| 2026-04-26 12:35 | 59.17662 | 2.04119 | 38738 ft | 483 kts | 44° |
| 2026-04-26 12:35 | 59.19920 | 2.09003 | 38492 ft | 489 kts | 44° |
| 2026-04-26 12:35 | 59.22161 | 2.13873 | 38273 ft | 476 kts | 45° |
| 2026-04-26 12:36 | 59.24322 | 2.18583 | 37722 ft | 471 kts | 44° |
| 2026-04-26 12:36 | 59.26537 | 2.23412 | 37055 ft | 469 kts | 45° |
| 2026-04-26 12:36 | 59.28683 | 2.28096 | 36411 ft | 468 kts | 45° |
| 2026-04-26 12:36 | 59.30723 | 2.32556 | 35775 ft | 477 kts | 45° |
| 2026-04-26 12:37 | 59.32663 | 2.36802 | 35195 ft | 478 kts | 45° |
| 2026-04-26 12:37 | 59.34877 | 2.41661 | 34361 ft | 480 kts | 45° |
| 2026-04-26 12:37 | 59.37100 | 2.46554 | 33508 ft | 479 kts | 45° |
| 2026-04-26 12:37 | 59.39311 | 2.51435 | 32722 ft | 478 kts | 45° |
| 2026-04-26 12:38 | 59.41516 | 2.56311 | 31930 ft | 477 kts | 45° |
| 2026-04-26 12:38 | 59.43705 | 2.61163 | 31336 ft | 472 kts | 45° |
| 2026-04-26 12:38 | 59.45736 | 2.65675 | 30805 ft | 469 kts | 45° |
| 2026-04-26 12:38 | 59.47901 | 2.70490 | 30204 ft | 470 kts | 45° |
| 2026-04-26 12:39 | 59.50092 | 2.75368 | 29607 ft | 481 kts | 45° |
| 2026-04-26 12:39 | 59.52312 | 2.80323 | 28995 ft | 480 kts | 45° |
| 2026-04-26 12:39 | 59.54484 | 2.85195 | 28424 ft | 467 kts | 45° |
| 2026-04-26 12:39 | 59.56593 | 2.89937 | 27858 ft | 453 kts | 45° |
| 2026-04-26 12:40 | 59.58649 | 2.94566 | 27316 ft | 446 kts | 45° |
| 2026-04-26 12:40 | 59.60685 | 2.99151 | 26765 ft | 441 kts | 45° |
| 2026-04-26 12:40 | 59.62693 | 3.03681 | 26222 ft | 436 kts | 45° |
| 2026-04-26 12:40 | 59.64676 | 3.08165 | 25683 ft | 431 kts | 45° |
| 2026-04-26 12:41 | 59.66636 | 3.12605 | 25142 ft | 427 kts | 45° |
| 2026-04-26 12:41 | 59.68578 | 3.17012 | 24607 ft | 423 kts | 45° |
| 2026-04-26 12:41 | 59.70499 | 3.21381 | 24073 ft | 419 kts | 45° |
| 2026-04-26 12:41 | 59.72406 | 3.25728 | 23493 ft | 415 kts | 45° |
| 2026-04-26 12:42 | 59.74284 | 3.30017 | 22974 ft | 409 kts | 44° |
| 2026-04-26 12:42 | 59.76135 | 3.34253 | 22450 ft | 404 kts | 44° |
| 2026-04-26 12:42 | 59.77964 | 3.38445 | 21942 ft | 399 kts | 45° |
| 2026-04-26 12:42 | 59.79770 | 3.42590 | 21420 ft | 394 kts | 45° |
| 2026-04-26 12:43 | 59.81550 | 3.46683 | 20933 ft | 390 kts | 45° |
| 2026-04-26 12:43 | 59.83311 | 3.50738 | 20425 ft | 385 kts | 45° |
| 2026-04-26 12:43 | 59.85565 | 3.55940 | 19775 ft | 381 kts | 45° |
| 2026-04-26 12:43 | 59.88989 | 3.63867 | 18802 ft | 374 kts | 45° |
| 2026-04-26 12:44 | 59.92347 | 3.71670 | 17793 ft | 366 kts | 45° |
| 2026-04-26 12:44 | 59.95618 | 3.79301 | 16835 ft | 358 kts | 45° |
| 2026-04-26 12:44 | 59.98816 | 3.86781 | 15899 ft | 351 kts | 45° |
| 2026-04-26 12:44 | 60.01296 | 3.92594 | 15167 ft | 346 kts | 45° |
| 2026-04-26 12:45 | 60.02776 | 3.96408 | 14708 ft | 347 kts | 53° |
| 2026-04-26 12:45 | 60.03872 | 4.00730 | 14258 ft | 351 kts | 65° |
| 2026-04-26 12:45 | 60.04536 | 4.05433 | 13761 ft | 352 kts | 73° |
| 2026-04-26 12:45 | 60.05403 | 4.12660 | 13068 ft | 345 kts | 72° |
| 2026-04-26 12:46 | 60.06034 | 4.17817 | 12562 ft | 342 kts | 72° |
| 2026-04-26 12:46 | 60.07018 | 4.25880 | 11777 ft | 336 kts | 73° |
| 2026-04-26 12:46 | 60.07851 | 4.32761 | 11109 ft | 332 kts | 73° |
| 2026-04-26 12:46 | 60.08389 | 4.37226 | 10753 ft | 326 kts | 73° |
| 2026-04-26 12:47 | 60.08906 | 4.41546 | 10623 ft | 313 kts | 73° |
| 2026-04-26 12:47 | 60.09404 | 4.45729 | 10342 ft | 306 kts | 73° |
| 2026-04-26 12:47 | 60.09896 | 4.49845 | 10071 ft | 299 kts | 73° |
| 2026-04-26 12:47 | 60.10377 | 4.53894 | 9937 ft | 302 kts | 73° |
| 2026-04-26 12:48 | 60.10865 | 4.57989 | 9786 ft | 302 kts | 73° |
| 2026-04-26 12:48 | 60.11350 | 4.62084 | 9453 ft | 300 kts | 73° |
| 2026-04-26 12:48 | 60.11699 | 4.66198 | 9110 ft | 299 kts | 84° |
| 2026-04-26 12:48 | 60.11581 | 4.70351 | 8754 ft | 298 kts | 97° |
| 2026-04-26 12:49 | 60.11198 | 4.74344 | 8608 ft | 286 kts | 98° |
| 2026-04-26 12:49 | 60.10826 | 4.78187 | 8496 ft | 275 kts | 103° |
| 2026-04-26 12:49 | 60.09950 | 4.81506 | 8287 ft | 270 kts | 132° |
| 2026-04-26 12:49 | 60.08437 | 4.83622 | 7953 ft | 267 kts | 161° |
| 2026-04-26 12:50 | 60.06642 | 4.84149 | 7719 ft | 256 kts | 185° |
| 2026-04-26 12:50 | 60.04866 | 4.83976 | 7550 ft | 258 kts | 181° |
| 2026-04-26 12:50 | 60.03092 | 4.84492 | 7376 ft | 257 kts | 166° |
| 2026-04-26 12:50 | 60.01372 | 4.85493 | 7199 ft | 258 kts | 164° |
| 2026-04-26 12:51 | 59.99682 | 4.86680 | 7030 ft | 257 kts | 155° |
| 2026-04-26 12:51 | 59.98166 | 4.88552 | 6856 ft | 256 kts | 140° |
| 2026-04-26 12:51 | 59.96809 | 4.90842 | 6682 ft | 255 kts | 139° |
| 2026-04-26 12:51 | 59.95456 | 4.93137 | 6506 ft | 254 kts | 136° |
| 2026-04-26 12:52 | 59.94312 | 4.95782 | 6340 ft | 252 kts | 121° |
| 2026-04-26 12:52 | 59.93432 | 4.98771 | 6171 ft | 248 kts | 117° |
| 2026-04-26 12:52 | 59.92569 | 5.01754 | 5993 ft | 248 kts | 118° |
| 2026-04-26 12:52 | 59.91858 | 5.04840 | 5837 ft | 243 kts | 104° |
| 2026-04-26 12:53 | 59.91525 | 5.08123 | 5674 ft | 241 kts | 95° |
| 2026-04-26 12:53 | 59.91330 | 5.11418 | 5506 ft | 237 kts | 83° |
| 2026-04-26 12:53 | 59.91791 | 5.14466 | 5353 ft | 228 kts | 52° |
| 2026-04-26 12:53 | 59.92954 | 5.16475 | 5211 ft | 222 kts | 21° |
| 2026-04-26 12:54 | 59.94439 | 5.16972 | 5068 ft | 218 kts | 356° |
| 2026-04-26 12:54 | 59.95944 | 5.16809 | 4908 ft | 212 kts | 356° |
| 2026-04-26 12:54 | 59.97428 | 5.16658 | 4775 ft | 221 kts | 356° |
| 2026-04-26 12:54 | 59.98973 | 5.16514 | 4625 ft | 221 kts | 357° |
| 2026-04-26 12:55 | 60.00498 | 5.16383 | 4474 ft | 216 kts | 357° |
| 2026-04-26 12:55 | 60.01997 | 5.16263 | 4328 ft | 217 kts | 357° |
| 2026-04-26 12:55 | 60.03496 | 5.16136 | 4188 ft | 216 kts | 357° |
| 2026-04-26 12:55 | 60.04993 | 5.16007 | 4041 ft | 218 kts | 357° |
| 2026-04-26 12:56 | 60.06506 | 5.16004 | 3978 ft | 215 kts | 10° |
| 2026-04-26 12:56 | 60.07785 | 5.17310 | 3894 ft | 205 kts | 44° |
| 2026-04-26 12:56 | 60.08541 | 5.19651 | 3747 ft | 198 kts | 59° |
| 2026-04-26 12:56 | 60.09201 | 5.22057 | 3614 ft | 188 kts | 59° |
| 2026-04-26 12:57 | 60.09805 | 5.24236 | 3439 ft | 179 kts | 58° |
| 2026-04-26 12:57 | 60.10554 | 5.26232 | 3256 ft | 179 kts | 35° |
| 2026-04-26 12:57 | 60.11662 | 5.27185 | 3065 ft | 171 kts | 8° |
| 2026-04-26 12:58 | 60.14032 | 5.26956 | 2705 ft | 173 kts | 350° |
| 2026-04-26 12:58 | 60.15192 | 5.26582 | 2523 ft | 164 kts | 349° |
| 2026-04-26 12:58 | 60.16272 | 5.26237 | 2505 ft | 147 kts | 349° |
| 2026-04-26 12:58 | 60.17228 | 5.25855 | 2506 ft | 141 kts | 343° |
| 2026-04-26 12:59 | 60.18192 | 5.25292 | 2497 ft | 149 kts | 343° |
| 2026-04-26 12:59 | 60.19202 | 5.24807 | 2438 ft | 140 kts | 349° |
| 2026-04-26 12:59 | 60.20134 | 5.24647 | 2191 ft | 134 kts | 353° |
| 2026-04-26 12:59 | 60.21014 | 5.24452 | 2013 ft | 121 kts | 351° |
| 2026-04-26 13:00 | 60.21844 | 5.24253 | 1735 ft | 122 kts | 350° |
| 2026-04-26 13:00 | 60.22672 | 5.24047 | 1486 ft | 117 kts | 349° |
| 2026-04-26 13:00 | 60.23497 | 5.23834 | 1292 ft | 121 kts | 350° |
| 2026-04-26 13:00 | 60.24326 | 5.23569 | 1028 ft | 120 kts | 345° |
| 2026-04-26 13:01 | 60.25132 | 5.23200 | 807 ft | 122 kts | 346° |
| 2026-04-26 13:01 | 60.25974 | 5.22933 | 665 ft | 124 kts | 350° |
| 2026-04-26 13:01 | 60.26813 | 5.22659 | 488 ft | 118 kts | 349° |
| 2026-04-26 13:01 | 60.27644 | 5.22394 | 330 ft | 124 kts | 346° |
| 2026-04-26 13:02 | 60.28468 | 5.22115 | 153 ft | 115 kts | 346° |
| 2026-04-26 13:02 | 60.29156 | 5.21873 | 153 ft | 81 kts | 351° |
| 2026-04-26 13:02 | 60.29568 | 5.21737 | 155 ft | 41 kts | 350° |
| 2026-04-26 13:02 | 60.29690 | 5.21714 | 158 ft | 2 kts | 19° |
| 2026-04-26 13:03 | 60.29713 | 5.21787 | 157 ft | 11 kts | 85° |
| 2026-04-26 13:03 | 60.29717 | 5.21882 | 157 ft | 0 kts | 84° |
| 2026-04-26 13:03 | 60.29718 | 5.21901 | 157 ft | 4 kts | 85° |
| 2026-04-26 13:03 | 60.29711 | 5.21981 | 157 ft | 7 kts | 119° |
| 2026-04-26 13:04 | 60.29651 | 5.22035 | 157 ft | 12 kts | 168° |
| 2026-04-26 13:04 | 60.29552 | 5.22069 | 156 ft | 17 kts | 171° |
| 2026-04-26 13:04 | 60.29445 | 5.22103 | 155 ft | 12 kts | 171° |
| 2026-04-26 13:04 | 60.29389 | 5.22121 | 154 ft | 9 kts | 171° |
| 2026-04-26 13:05 | 60.29320 | 5.22144 | 154 ft | 11 kts | 171° |
| 2026-04-26 13:05 | 60.29241 | 5.22170 | 153 ft | 11 kts | 169° |
| 2026-04-26 13:05 | 60.29157 | 5.22199 | 152 ft | 13 kts | 170° |
| 2026-04-26 13:05 | 60.29092 | 5.22259 | 152 ft | 9 kts | 113° |
| 2026-04-26 13:06 | 60.29091 | 5.22283 | 152 ft | 0 kts | 100° |
| 2026-04-26 13:06 | 60.29083 | 5.22312 | 152 ft | 5 kts | 124° |
| 2026-04-26 13:06 | 60.29048 | 5.22377 | 151 ft | 9 kts | 130° |
| 2026-04-26 13:06 | 60.29006 | 5.22490 | 151 ft | 7 kts | 133° |
| 2026-04-26 13:07 | 60.28984 | 5.22536 | 151 ft | 1 kts | 136° |